ADDS TAF Board (Experimental) INFO Settings
IDs: Format: Expanded Condensed

KCVG - Cincinnati Intl, KY, US

Issued at 1134 UTC 30 Aug 2015
Updated at: 1152 UTC 30 Aug 2015
Time1052Z 30/12Z 30/13Z 30/14Z 30/15Z 30/16Z 30/17Z 30/18Z 30/19Z 30/20Z 30/21Z 30/22Z 30/23Z 31/00Z
Type OBS PRVL PRVL PRVL PRVL PRVL PRVL PRVL PRVL PRVL PRVL PRVL PRVL PRVL
VIS 10 >6 >6 >6 >6 >6 >6 >6 >6 >6 >6 >6 >6 >6
CIG 250 250 250 150 150 150 150 40 40 40 40 40 40 --
Cover BKN BKN BKN BKN BKN BKN BKN BKN BKN BKN BKN BKN BKN SCT
FltCat VFR VFR VFR VFR VFR VFR VFR VFR VFR VFR VFR VFR VFR VFR
WX -- -- -- -- -- -- -- VCSH VCSH VCSH VCSH VCSH VCSH --
WDir VRB 200 200 210 210 210 210 200 200 200 200 200 200 220
WSpd 0 4 4 8 8 8 8 8 8 8 8 8 8 3
WGst -- -- -- -- -- -- -- -- -- -- -- -- -- --
R09/27
XWnd VRB -4 -4 -7 -7 -7 -7 -8 -8 -8 -8 -8 -8 -2
HWnd VRB -1 -1 -4 -4 -4 -4 -3 -3 -3 -3 -3 -3 -2
R18/36
XWnd VRB -1 -1 -4 -4 -4 -4 -3 -3 -3 -3 -3 -3 -2
HWnd VRB 4 4 7 7 7 7 8 8 8 8 8 8 2

NOTE: TEMPO conditions in [brackets]. Keep in mind TEMPO conditions might be better (lower impact) than prevailing conditions.

Raw TAF
KCVG 301134Z 3012/3118 20004KT P6SM SCT060 SCT150 BKN250
  FM301400 21008KT P6SM SCT025 BKN150
  FM301800 20008KT P6SM VCSH BKN040
  FM310000 22003KT P6SM SCT150
  TEMPO 3108/3112 00000KT 3SM BR SKC
  FM311400 23005KT P6SM FEW025 SCT100


Raw METAR
KCVG 301052Z 00000KT 10SM SCT070 SCT140 BKN250 19/18 A3010 RMK AO2 SLP183 T01890178
KCVG 300952Z 00000KT 10SM SCT230 19/18 A3009 RMK AO2 SLP180 T01940183
KCVG 300852Z 19005KT 10SM BKN230 18/18 A3007 RMK AO2 SLP175 T01830178 56004

METAR Board
Radar Display
Forecast Discussion

TAF Board Legend

Potential Impact
Threat None Slight Moderate High
Visibility (sm) ≥5.1 5.1>X≥3 3>X≥1 <1
Ceiling (100 ft) ≥30.1 30.1>X≥10 10>X≥5 <5
Wind Speed (kt) <10 10≤X<20 20≤X<30 ≥30
Wind Gust (kt) <15 15≤X<25 25≤X<35 ≥35
Weather No Wx Reported VCTS,-TS,-FZRA,SN TS,FZRA +TS,+FZRA,+SN